Stations météo

Publicité
Embrun, France (7591): Température de l'air & dewpoint: 13.04.2019 02:00:00 - 19.04.2019 02:00:00 (CEST)Embrun, France (7591): Température de l'air 5cm: 13.04.2019 02:00:00 - 19.04.2019 02:00:00 (CEST)Embrun, France (7591): Température de l'air -20cm & Température de l'air -100cm: 13.04.2019 02:00:00 - 19.04.2019 02:00:00 (CEST)Embrun, France (7591): Vitesse du vent & gusts: 13.04.2019 02:00:00 - 19.04.2019 02:00:00 (CEST)Embrun, France (7591): Direction du vent: 13.04.2019 02:00:00 - 19.04.2019 02:00:00 (CEST)Embrun, France (7591): visibility: 13.04.2019 02:00:00 - 19.04.2019 02:00:00 (CEST)Embrun, France (7591): Ensoleillement: 13.04.2019 02:00:00 - 19.04.2019 02:00:00 (CEST)Embrun, France (7591): Quantités de précipitations: 13.04.2019 02:00:00 - 19.04.2019 02:00:00 (CEST)
Date & Time tt [°C] td [°C] tt 5cm [°C] tt -20cm [°C] tt -100cm [°C] ff [km/h] ff [knt] fx [km/h] fx [knt] dd vv [km] sd [min] rr [mm]
19.04.2019 02:00:00 13,8 0,1 12,5 11,1 9,2 29 16 56 30 NNE 20 0 0,0
19.04.2019 01:00:00 13,9 1,2 12,8 11,1 9,1 32 18 63 34 NNE 20 0 0,0
19.04.2019 00:00:00 13,8 1,4 12,7 11,1 9,1 26 14 52 28 NNE 19 0 0,0
18.04.2019 23:00:00 14,2 1,5 13,4 11,1 9,2 34 19 54 29 NNE 18 0 0,0
18.04.2019 22:00:00 14,7 1,2 13,9 11,0 9,1 31 17 49 27 NNE 20 0 0,0
18.04.2019 21:00:00 15,2 0,6 14,4 10,9 9,1 28 15 48 26 N 20 0 0,0
18.04.2019 20:00:00 15,9 0,8 15,1 10,8 9,1 31 17 55 30 N 20 0 0,0
18.04.2019 19:00:00 16,6 1,1 16,3 10,7 9,1 35 19 57 31 N 20 0 0,0
18.04.2019 18:00:00 17,8 1,7 18,1 10,6 9,1 25 14 48 26 N 20 15 0,0
18.04.2019 17:00:00 19,1 1,6 21,2 10,5 9,1 32 17 49 27 N 20 53 0,0
18.04.2019 16:00:00 20,0 1,9 25,8 10,5 9,1 28 15 44 24 N 20 60 0,0
18.04.2019 15:00:00 19,5 1,0 25,7 10,4 9,1 26 14 43 23 N 20 60 0,0
18.04.2019 14:00:00 19,5 1,4 27,3 10,4 9,1 27 15 43 23 NNE 20 60 0,0
18.04.2019 13:00:00 18,7 0,8 24,9 10,4 9,1 27 15 51 28 NNE 20 60 0,0
18.04.2019 12:00:00 17,9 1,0 22,7 10,4 9,1 27 14 49 27 NNE 20 60 0,0
18.04.2019 11:00:00 16,7 0,3 21,2 10,5 9,1 29 15 54 29 N 20 60 0,0
18.04.2019 10:00:00 15,7 0,3 14,7 10,5 9,1 31 17 47 26 NNE 20 55 0,0
18.04.2019 09:00:00 14,2 1,1 10,8 10,5 9,1 30 16 47 26 N 20 49 0,0
18.04.2019 08:00:00 11,5 1,7 10,1 10,6 9,1 31 17 50 27 N 20 0 0,0
18.04.2019 07:00:00 11,4 1,6 6,8 10,6 9,1 29 16 55 30 N 20 0 0,0
18.04.2019 06:00:00 9,8 1,9 6,0 10,7 9,1 12 7 26 14 NE 20 0 0,0
18.04.2019 05:00:00 9,1 2,2 3,8 10,7 9,1 10 5 17 9 ENE 20 0 0,0
18.04.2019 04:00:00 6,4 2,7 3,5 10,7 9,1 8 4 10 6 NE 20 0 0,0
18.04.2019 03:00:00 7,2 2,5 3,0 10,7 9,1 0 0 6 4 N 20 0 0,0
18.04.2019 02:00:00 7,3 2,6 2,6 10,8 9,1 6 3 9 5 NE 20 0 0,0
18.04.2019 01:00:00 8,2 2,6 4,7 10,7 9,1 2 1 10 6 WSW 20 0 0,0
18.04.2019 00:00:00 8,8 2,8 4,8 10,7 9,1 6 4 9 5 N 20 0 0,0
17.04.2019 23:00:00 10,1 2,9 4,9 10,6 9,0 4 2 8 5 W 20 0 0,0
17.04.2019 22:00:00 11,6 2,9 5,5 10,5 9,0 4 2 9 5 NNE 20 0 0,0
17.04.2019 21:00:00 13,5 2,7 11,2 10,4 9,0 10 6 30 16 S 20 0 0,0
17.04.2019 20:00:00 15,5 1,9 14,3 10,3 9,0 13 7 27 15 SW 20 0 0,0
17.04.2019 19:00:00 17,4 2,9 17,3 10,2 9,0 15 8 31 17 SSW 20 44 0,0
17.04.2019 18:00:00 19,0 2,8 21,2 10,0 9,1 16 8 29 16 SW 20 60 0,0
17.04.2019 17:00:00 19,3 2,6 24,0 9,9 9,0 17 9 34 18 SSW 20 60 0,0
17.04.2019 16:00:00 19,4 2,3 25,9 9,8 9,0 19 10 36 20 SW 20 60 0,0
17.04.2019 15:00:00 19,0 -0,4 23,9 9,8 9,0 18 10 34 19 SSW 20 60 0,0
17.04.2019 14:00:00 18,2 0,8 24,7 9,7 9,0 18 10 32 18 SSW 20 60 0,0
17.04.2019 13:00:00 16,9 3,2 25,2 9,8 9,0 14 7 23 12 SSW 20 60 0,0
17.04.2019 12:00:00 14,9 2,4 22,0 9,8 9,0 7 4 13 7 S 20 60 0,0
17.04.2019 11:00:00 12,5 2,6 17,4 9,8 9,0 6 3 11 6 S 20 60 0,0
17.04.2019 10:00:00 9,2 3,0 9,4 9,9 9,0 5 3 11 6 S 20 60 0,0
17.04.2019 09:00:00 6,4 2,8 0,0 10,0 9,0 4 2 9 5 S 20 50 0,0
17.04.2019 08:00:00 2,5 0,7 -2,2 10,1 9,0 0 0 13 7 N 20 0 0,0
17.04.2019 07:00:00 1,8 0,6 -1,9 10,1 9,0 0 0 6 3 N 20 0 0,0
17.04.2019 06:00:00 2,3 1,0 -1,9 10,2 9,0 2 1 8 4 N 20 0 0,0
17.04.2019 05:00:00 2,9 1,6 -1,7 10,2 9,0 6 3 9 5 N 20 0 0,0
17.04.2019 04:00:00 2,8 1,6 -0,8 10,3 9,0 5 3 8 4 NE 20 0 0,0
17.04.2019 03:00:00 3,4 1,6 -0,5 10,3 9,0 2 1 8 4 ESE 20 0 0,0
17.04.2019 02:00:00 4,3 2,3 0,9 10,3 9,0 0 0 10 5 N 20 0 0,0
17.04.2019 01:00:00 4,8 2,8 1,1 10,3 8,9 5 3 7 4 N 20 0 0,0
17.04.2019 00:00:00 5,7 3,2 1,2 10,3 9,0 3 2 6 3 NNE 20 0 0,0
16.04.2019 23:00:00 6,0 3,2 1,4 10,3 9,0 4 2 7 4 N 20 0 0,0
16.04.2019 22:00:00 7,4 3,6 3,8 10,3 9,0 4 2 7 4 NNW 20 0 0,0
16.04.2019 21:00:00 8,7 4,1 7,1 10,3 9,0 4 2 13 7 S 20 0 0,0
16.04.2019 20:00:00 10,2 3,7 10,1 10,3 9,0 6 3 14 7 SW 20 53 0,0
16.04.2019 19:00:00 10,0 3,9 10,6 10,2 9,0 10 5 21 12 SSW 20 0 0,0
16.04.2019 18:00:00 9,8 4,2 10,7 10,1 8,9 13 7 25 14 SSW 20 0 0,0
16.04.2019 17:00:00 10,6 4,3 12,8 10,1 8,9 15 8 24 13 SSW 20 0 0,0
16.04.2019 16:00:00 10,3 3,8 12,0 10,1 8,9 15 8 31 17 SSW 20 0 0,0
16.04.2019 15:00:00 9,8 4,2 9,4 10,1 8,9 15 8 27 15 SSW 20 0 0,0
16.04.2019 14:00:00 9,3 4,5 10,0 10,1 8,9 13 7 37 20 SSW 20 0 0,0
16.04.2019 13:00:00 10,0 3,5 11,7 10,1 8,9 19 11 34 18 SW 20 0 0,0
16.04.2019 12:00:00 11,3 2,1 13,3 10,1 9,0 15 8 24 13 SW 20 7 0,0
16.04.2019 11:00:00 11,8 2,8 12,8 10,1 8,9 5 3 11 6 ENE 20 27 0,0
16.04.2019 10:00:00 9,1 2,6 10,5 10,1 8,9 5 3 14 7 SSE 20 0 0,0
16.04.2019 09:00:00 7,8 3,3 7,2 10,2 8,9 10 5 15 8 NNE 20 0 0,0
16.04.2019 08:00:00 6,9 3,5 5,5 10,2 8,9 0 0 7 4 N 20 0 0,0
16.04.2019 07:00:00 6,8 3,2 4,8 10,3 8,9 3 2 6 3 NW 20 0 0,0
16.04.2019 06:00:00 6,5 2,8 4,9 10,3 8,9 3 2 14 8 NE 20 0 0,0
16.04.2019 05:00:00 6,8 3,0 5,2 10,3 8,9 2 1 8 4 S 20 0 0,0
16.04.2019 04:00:00 6,7 2,6 4,5 10,3 8,9 4 2 8 4 SSW 20 0 0,0
16.04.2019 03:00:00 7,0 1,9 3,1 10,3 8,9 3 1 6 4 NNE 20 0 0,0
16.04.2019 02:00:00 7,6 2,1 3,8 10,3 8,9 2 1 5 3 SSW 20 0 0,0
16.04.2019 01:00:00 8,5 2,3 6,0 10,3 8,9 3 1 8 4 SSW 20 0 0,0
16.04.2019 00:00:00 9,6 2,7 8,4 10,2 8,9 5 3 16 8 S 20 0 0,0
15.04.2019 23:00:00 10,3 2,6 9,5 10,2 8,9 7 4 26 14 S 20 0 0,0
15.04.2019 22:00:00 11,3 2,3 10,7 10,1 8,9 14 8 22 12 SSW 20 0 0,0
15.04.2019 21:00:00 12,1 1,1 11,0 10,0 8,9 8 5 22 12 SSW 20 0 0,0
15.04.2019 20:00:00 13,5 -0,2 12,5 9,9 8,9 14 7 21 11 SW 20 0 0,0
15.04.2019 19:00:00 14,8 -1,3 14,5 9,8 8,9 7 4 27 15 WSW 20 36 0,0
15.04.2019 18:00:00 15,1 -4,8 15,4 9,7 8,9 22 12 34 19 N 20 44 0,0
15.04.2019 17:00:00 16,6 -4,1 24,4 9,6 8,8 19 10 33 18 NNE 20 60 0,0
15.04.2019 16:00:00 16,3 -4,9 26,6 9,6 8,9 18 10 35 19 N 20 60 0,0
15.04.2019 15:00:00 15,9 -4,1 22,4 9,5 8,9 19 10 42 23 N 20 56 0,0
15.04.2019 14:00:00 15,7 -3,3 26,6 9,5 8,9 20 11 37 20 N 20 60 0,0
15.04.2019 13:00:00 14,9 -4,0 23,4 9,5 8,9 21 11 49 27 NNE 20 60 0,0
15.04.2019 12:00:00 13,6 -4,6 20,5 9,6 8,9 21 12 44 24 N 20 60 0,0
15.04.2019 11:00:00 12,3 -5,3 17,4 9,6 8,9 25 13 45 25 N 20 60 0,0
15.04.2019 10:00:00 10,5 -3,2 11,6 9,7 8,9 24 13 48 26 N 20 60 0,0
15.04.2019 09:00:00 7,1 -4,1 2,4 9,7 8,9 18 10 35 19 NE 20 49 0,0
15.04.2019 08:00:00 3,8 -5,7 1,7 9,8 8,9 22 12 40 22 NE 20 0 0,0
15.04.2019 07:00:00 3,9 -5,9 1,8 9,9 8,9 17 9 39 21 NNE 20 0 0,0
15.04.2019 06:00:00 5,1 -6,2 3,3 9,9 8,9 22 12 44 24 N 20 0 0,0
15.04.2019 05:00:00 5,5 -6,7 4,0 10,0 8,8 27 15 44 24 N 20 0 0,0
15.04.2019 04:00:00 5,4 -5,9 3,7 10,1 8,9 27 14 44 24 N 20 0 0,0
15.04.2019 03:00:00 5,6 -5,7 -1,2 10,1 8,8 26 14 42 23 N 20 0 0,0
15.04.2019 02:00:00 1,9 -5,1 -1,9 10,1 8,9 3 2 10 6 ESE 20 0 0,0
15.04.2019 01:00:00 2,2 -4,8 -2,8 10,1 8,8 2 1 9 5 N 20 0 0,0
15.04.2019 00:00:00 2,8 -4,9 -1,2 10,1 8,8 2 1 12 7 WNW 20 0 0,0
14.04.2019 23:00:00 3,7 -5,0 -0,8 10,1 8,8 2 1 11 6 WNW 20 0 0,0
14.04.2019 22:00:00 4,8 -4,8 0,3 10,0 8,8 8 4 14 8 NNE 20 0 0,0
14.04.2019 21:00:00 7,2 -5,2 4,9 10,0 8,8 6 3 25 13 SW 20 0 0,0
14.04.2019 20:00:00 8,7 -5,2 7,7 9,9 8,8 13 7 29 16 SSW 20 24 0,0
14.04.2019 19:00:00 11,4 -6,5 11,3 9,8 8,8 17 9 32 18 SSW 20 60 0,0
14.04.2019 18:00:00 13,0 -9,5 16,1 9,7 8,8 16 9 34 19 SW 20 60 0,0
14.04.2019 17:00:00 12,9 -10,2 17,5 9,6 8,8 21 12 38 20 SSW 20 60 0,0
14.04.2019 16:00:00 13,5 -10,4 19,6 9,5 8,8 17 9 35 19 SSW 20 60 0,0
14.04.2019 15:00:00 12,8 -12,5 19,2 9,5 8,8 19 11 32 17 SSW 20 60 0,0
14.04.2019 14:00:00 11,9 -11,7 18,9 9,5 8,8 16 9 28 15 SSW 20 60 0,0
14.04.2019 13:00:00 10,7 -9,6 17,2 9,6 8,8 16 9 32 17 SSW 20 60 0,0
14.04.2019 12:00:00 9,0 -7,3 15,9 9,6 8,8 12 6 24 13 SSW 20 60 0,0
14.04.2019 11:00:00 6,4 -4,1 12,4 9,7 8,8 9 5 22 12 SSW 20 60 0,0
14.04.2019 10:00:00 4,4 -4,4 9,3 9,8 8,8 7 4 14 8 S 20 60 0,0
14.04.2019 09:00:00 2,8 -3,8 -3,9 9,9 8,8 2 1 6 3 E 20 48 0,0
14.04.2019 08:00:00 -1,8 -4,6 -6,2 10,0 8,8 3 1 6 4 S 19 0 0,0
14.04.2019 07:00:00 -1,5 -4,8 -6,7 10,0 8,8 5 3 7 4 ENE 19 0 0,0
14.04.2019 06:00:00 -1,4 -4,6 -5,7 10,1 8,8 2 1 9 5 SW 20 0 0,0
14.04.2019 05:00:00 -0,4 -4,5 -4,9 10,2 8,8 5 3 9 5 NNE 20 0 0,0
14.04.2019 04:00:00 0,1 -4,5 -5,7 10,3 8,8 5 3 6 3 NE 20 0 0,0
14.04.2019 03:00:00 0,6 -4,4 -4,7 10,3 8,7 0 0 4 2 N 20 0 0,0
14.04.2019 02:00:00 1,3 -4,2 -3,8 10,3 8,8 0 0 5 3 N 20 0 0,0
14.04.2019 01:00:00 2,7 -4,3 -2,6 10,3 8,8 3 2 8 4 NNW 20 0 0,0
14.04.2019 00:00:00 4,6 -4,2 -0,7 10,3 8,7 2 1 10 5 W 20 0 0,0
13.04.2019 23:00:00 5,5 -3,9 2,5 10,3 8,7 4 2 23 12 S 20 0 0,0
13.04.2019 22:00:00 7,5 -3,7 5,7 10,2 8,7 12 6 26 14 S 20 0 0,0
13.04.2019 21:00:00 9,1 -4,5 7,7 10,1 8,7 11 6 27 15 SSW 20 0 0,0
13.04.2019 20:00:00 11,0 -4,7 9,9 10,0 8,7 16 8 38 21 SSW 20 23 0,0
13.04.2019 19:00:00 13,8 -5,4 13,6 9,9 8,7 20 11 40 22 SSW 20 60 0,0
13.04.2019 18:00:00 15,6 -3,9 18,4 9,8 8,7 19 10 39 21 SW 20 60 0,0
13.04.2019 17:00:00 15,9 -2,1 20,4 9,7 8,7 20 11 47 26 SW 20 60 0,0
13.04.2019 16:00:00 15,4 -4,0 21,6 9,6 8,7 23 12 44 24 WSW 20 60 0,0
13.04.2019 15:00:00 15,9 -2,1 22,2 9,6 8,7 19 10 37 20 SW 20 60 0,0
13.04.2019 14:00:00 15,7 -0,5 23,0 9,6 8,7 18 10 38 21 SW 20 60 0,0
13.04.2019 13:00:00 14,6 2,1 19,9 9,6 8,7 14 8 31 17 SW 20 60 0,0
13.04.2019 12:00:00 12,1 1,4 19,7 9,6 8,7 14 7 23 12 SSW 20 60 0,0
13.04.2019 11:00:00 9,1 0,5 15,4 9,7 8,7 8 4 19 10 S 19 60 0,0
13.04.2019 10:00:00 7,1 -0,4 7,8 9,8 8,7 5 3 11 6 S 20 60 0,0
13.04.2019 09:00:00 4,8 0,4 -1,1 9,9 8,7 4 2 16 9 SSE 19 47 0,0
13.04.2019 08:00:00 1,1 -1,3 -3,1 9,9 8,7 11 6 15 8 NE 19 0 0,0
13.04.2019 07:00:00 0,9 -1,2 -3,4 10,0 8,7 4 2 8 4 NE 16 0 0,0
13.04.2019 06:00:00 1,4 0,1 -3,1 10,0 8,7 0 0 5 3 N 14 0 0,0
13.04.2019 05:00:00 2,1 0,3 -1,8 10,1 8,7 3 2 6 4 SE 12 0 0,0
13.04.2019 04:00:00 2,8 0,4 -0,3 10,1 8,7 5 3 18 10 E 15 0 0,0
13.04.2019 03:00:00 3,3 1,0 -0,2 10,2 8,7 10 5 16 8 NE 14 0 0,0
13.04.2019 02:00:00 4,1 1,1 -0,7 10,2 8,6 6 3 9 5 N 13 0 0,0

tt = Température de l'air
td = dewpoint
tt 5cm = Température de l'air 5cm
tt -20cm = Température de l'air -20cm
tt -100cm = Température de l'air -100cm
ff = Vitesse du vent
fx = gusts
dd = Direction du vent
vv = visibility
sd = Ensoleillement
rr = Quantités de précipitations

stations d'obs. à proximité